sensor_id;sensor_type;location;lat;lon;timestamp;pressure;altitude;pressure_sealevel;temperature;humidity
72802;BME280;61891;55.818;37.084;2023-07-13T00:01:29;98642.03;;;13.26;67.19
72802;BME280;61891;55.818;37.084;2023-07-13T00:03:55;98641.63;;;13.22;67.25
72802;BME280;61891;55.818;37.084;2023-07-13T00:06:21;98625.19;;;13.12;67.21
72802;BME280;61891;55.818;37.084;2023-07-13T00:08:47;98635.88;;;13.18;66.70
72802;BME280;61891;55.818;37.084;2023-07-13T00:11:15;98637.72;;;13.18;67.10
72802;BME280;61891;55.818;37.084;2023-07-13T00:13:42;98641.16;;;13.12;67.13
72802;BME280;61891;55.818;37.084;2023-07-13T00:16:10;98642.81;;;13.13;67.61
72802;BME280;61891;55.818;37.084;2023-07-13T00:18:36;98604.06;;;12.90;67.81
72802;BME280;61891;55.818;37.084;2023-07-13T00:21:04;98637.09;;;13.16;67.50
72802;BME280;61891;55.818;37.084;2023-07-13T00:23:34;98619.84;;;12.99;67.60
72802;BME280;61891;55.818;37.084;2023-07-13T00:26:02;98634.25;;;13.17;67.72
72802;BME280;61891;55.818;37.084;2023-07-13T00:28:28;98594.47;;;12.96;67.83
72802;BME280;61891;55.818;37.084;2023-07-13T00:30:54;98620.94;;;13.17;68.21
72802;BME280;61891;55.818;37.084;2023-07-13T00:33:20;98633.06;;;13.33;68.26
72802;BME280;61891;55.818;37.084;2023-07-13T00:35:46;98613.59;;;13.26;68.07
72802;BME280;61891;55.818;37.084;2023-07-13T00:38:13;98617.09;;;13.33;67.60
72802;BME280;61891;55.818;37.084;2023-07-13T00:40:39;98637.97;;;13.43;67.02
72802;BME280;61891;55.818;37.084;2023-07-13T00:43:20;98618.28;;;13.24;67.60
72802;BME280;61891;55.818;37.084;2023-07-13T00:48:19;98619.72;;;13.27;67.08
72802;BME280;61891;55.818;37.084;2023-07-13T00:50:50;98630.59;;;13.38;67.75
72802;BME280;61891;55.818;37.084;2023-07-13T00:53:18;98603.50;;;13.15;67.42
72802;BME280;61891;55.818;37.084;2023-07-13T00:55:44;98634.69;;;13.34;67.18
72802;BME280;61891;55.818;37.084;2023-07-13T00:58:10;98635.31;;;13.30;67.37
72802;BME280;61891;55.818;37.084;2023-07-13T01:00:38;98551.03;;;12.76;67.46
72802;BME280;61891;55.818;37.084;2023-07-13T01:03:04;98634.69;;;13.28;67.24
72802;BME280;61891;55.818;37.084;2023-07-13T01:05:32;98606.78;;;13.10;67.17
72802;BME280;61891;55.818;37.084;2023-07-13T01:08:00;98622.81;;;13.23;67.56
72802;BME280;61891;55.818;37.084;2023-07-13T01:10:27;98627.91;;;13.25;67.21
72802;BME280;61891;55.818;37.084;2023-07-13T01:12:54;98627.91;;;13.25;67.77
72802;BME280;61891;55.818;37.084;2023-07-13T01:15:42;98621.56;;;13.26;67.80
72802;BME280;61891;55.818;37.084;2023-07-13T01:18:14;98621.97;;;13.23;67.15
72802;BME280;61891;55.818;37.084;2023-07-13T01:20:41;98619.94;;;13.25;67.27
72802;BME280;61891;55.818;37.084;2023-07-13T01:23:09;98623.63;;;13.24;67.06
72802;BME280;61891;55.818;37.084;2023-07-13T01:25:37;98623.19;;;13.20;67.02
72802;BME280;61891;55.818;37.084;2023-07-13T01:28:05;98628.72;;;13.19;67.44
72802;BME280;61891;55.818;37.084;2023-07-13T01:30:31;98619.94;;;13.18;67.75
72802;BME280;61891;55.818;37.084;2023-07-13T01:32:58;98622.78;;;13.17;67.59
72802;BME280;61891;55.818;37.084;2023-07-13T01:35:26;98589.56;;;13.06;67.73
72802;BME280;61891;55.818;37.084;2023-07-13T01:37:53;98608.22;;;13.13;67.90
72802;BME280;61891;55.818;37.084;2023-07-13T01:40:20;98603.13;;;13.18;67.78
72802;BME280;61891;55.818;37.084;2023-07-13T01:42:45;98606.41;;;13.20;68.60
72802;BME280;61891;55.818;37.084;2023-07-13T01:45:11;98602.50;;;13.16;67.93
72802;BME280;61891;55.818;37.084;2023-07-13T01:47:37;98585.28;;;13.05;67.98
72802;BME280;61891;55.818;37.084;2023-07-13T01:50:03;98598.63;;;13.18;68.16
72802;BME280;61891;55.818;37.084;2023-07-13T01:52:29;98600.47;;;13.18;68.11
72802;BME280;61891;55.818;37.084;2023-07-13T01:54:58;98607.03;;;13.22;68.28
72802;BME280;61891;55.818;37.084;2023-07-13T01:57:24;98560.31;;;13.00;68.25
72802;BME280;61891;55.818;37.084;2023-07-13T01:59:50;98596.19;;;13.17;68.06
72802;BME280;61891;55.818;37.084;2023-07-13T02:02:16;98592.50;;;13.18;67.99
72802;BME280;61891;55.818;37.084;2023-07-13T02:04:42;98607.66;;;13.24;68.36
72802;BME280;61891;55.818;37.084;2023-07-13T02:07:08;98594.34;;;13.24;68.30
72802;BME280;61891;55.818;37.084;2023-07-13T02:09:34;98584.94;;;13.21;67.91
72802;BME280;61891;55.818;37.084;2023-07-13T02:12:01;98584.09;;;13.21;67.85
72802;BME280;61891;55.818;37.084;2023-07-13T02:14:34;98579.56;;;13.15;68.00
72802;BME280;61891;55.818;37.084;2023-07-13T02:17:00;98595.38;;;13.23;67.89
72802;BME280;61891;55.818;37.084;2023-07-13T02:19:27;98596.19;;;13.23;68.21
72802;BME280;61891;55.818;37.084;2023-07-13T02:21:52;98577.34;;;13.18;67.75
72802;BME280;61891;55.818;37.084;2023-07-13T02:24:18;98597.00;;;13.31;68.34
72802;BME280;61891;55.818;37.084;2023-07-13T02:26:47;98575.91;;;13.22;67.69
72802;BME280;61891;55.818;37.084;2023-07-13T02:29:14;98584.13;;;13.28;68.00
72802;BME280;61891;55.818;37.084;2023-07-13T02:31:40;98601.13;;;13.33;68.05
72802;BME280;61891;55.818;37.084;2023-07-13T02:34:07;98586.78;;;13.34;68.03
72802;BME280;61891;55.818;37.084;2023-07-13T02:36:33;98581.03;;;13.31;67.88
72802;BME280;61891;55.818;37.084;2023-07-13T02:39:01;98585.56;;;13.37;67.65
72802;BME280;61891;55.818;37.084;2023-07-13T02:41:27;98553.19;;;13.27;68.10
72802;BME280;61891;55.818;37.084;2023-07-13T02:43:53;98577.78;;;13.48;67.71
72802;BME280;61891;55.818;37.084;2023-07-13T02:46:19;98588.44;;;13.55;67.98
72802;BME280;61891;55.818;37.084;2023-07-13T02:48:45;98560.78;;;13.49;67.90
72802;BME280;61891;55.818;37.084;2023-07-13T02:51:13;98574.91;;;13.57;67.72
72802;BME280;61891;55.818;37.084;2023-07-13T02:53:39;98576.97;;;13.61;67.65
72802;BME280;61891;55.818;37.084;2023-07-13T02:56:05;98577.78;;;13.62;67.64
72802;BME280;61891;55.818;37.084;2023-07-13T02:58:33;98559.97;;;13.55;67.74
72802;BME280;61891;55.818;37.084;2023-07-13T03:01:09;98568.75;;;13.63;67.00
72802;BME280;61891;55.818;37.084;2023-07-13T03:03:36;98567.13;;;13.62;67.22
72802;BME280;61891;55.818;37.084;2023-07-13T03:06:03;98552.78;;;13.56;67.87
72802;BME280;61891;55.818;37.084;2023-07-13T03:08:36;98569.97;;;13.73;68.09
72802;BME280;61891;55.818;37.084;2023-07-13T03:11:08;98561.78;;;13.68;67.57
72802;BME280;61891;55.818;37.084;2023-07-13T03:13:40;98519.00;;;13.43;67.58
72802;BME280;61891;55.818;37.084;2023-07-13T03:16:07;98536.41;;;13.52;67.60
72802;BME280;61891;55.818;37.084;2023-07-13T03:18:34;98566.91;;;13.70;67.65
72802;BME280;61891;55.818;37.084;2023-07-13T03:43:19;98573.63;;;13.99;67.43
72802;BME280;61891;55.818;37.084;2023-07-13T03:45:47;98600.06;;;14.07;67.22
72802;BME280;61891;55.818;37.084;2023-07-13T03:48:13;98574.88;;;13.96;67.40
72802;BME280;61891;55.818;37.084;2023-07-13T03:50:40;98571.19;;;13.97;67.31
72802;BME280;61891;55.818;37.084;2023-07-13T03:53:05;98567.91;;;13.95;67.59
72802;BME280;61891;55.818;37.084;2023-07-13T03:55:31;98581.59;;;14.12;67.83
72802;BME280;61891;55.818;37.084;2023-07-13T03:58:01;98586.31;;;14.16;67.43
72802;BME280;61891;55.818;37.084;2023-07-13T04:00:45;98568.28;;;14.05;67.33
72802;BME280;61891;55.818;37.084;2023-07-13T04:03:11;98588.13;;;14.23;67.64
72802;BME280;61891;55.818;37.084;2023-07-13T04:05:37;98593.63;;;14.34;67.54
72802;BME280;61891;55.818;37.084;2023-07-13T04:08:06;98591.16;;;14.39;66.96
72802;BME280;61891;55.818;37.084;2023-07-13T04:10:34;98584.81;;;14.40;67.35
72802;BME280;61891;55.818;37.084;2023-07-13T04:13:00;98578.03;;;14.38;67.44
72802;BME280;61891;55.818;37.084;2023-07-13T04:15:28;98579.06;;;14.50;67.38
72802;BME280;61891;55.818;37.084;2023-07-13T04:17:54;98572.28;;;14.54;67.27
72802;BME280;61891;55.818;37.084;2023-07-13T04:20:20;98569.81;;;14.52;66.82
72802;BME280;61891;55.818;37.084;2023-07-13T04:22:47;98576.53;;;14.62;67.06
72802;BME280;61891;55.818;37.084;2023-07-13T04:25:13;98582.31;;;14.59;66.76
72802;BME280;61891;55.818;37.084;2023-07-13T04:27:38;98581.31;;;14.53;66.53
72802;BME280;61891;55.818;37.084;2023-07-13T04:30:05;98580.28;;;14.54;67.18
72802;BME280;61891;55.818;37.084;2023-07-13T04:32:31;98572.09;;;14.49;66.83
72802;BME280;61891;55.818;37.084;2023-07-13T04:34:57;98582.91;;;14.61;66.52
72802;BME280;61891;55.818;37.084;2023-07-13T04:37:25;98573.06;;;14.61;66.31
72802;BME280;61891;55.818;37.084;2023-07-13T04:39:52;98595.78;;;14.70;66.46
72802;BME280;61891;55.818;37.084;2023-07-13T04:42:19;98593.13;;;14.70;66.50
72802;BME280;61891;55.818;37.084;2023-07-13T04:44:49;98584.91;;;14.72;66.96
72802;BME280;61891;55.818;37.084;2023-07-13T04:47:15;98593.53;;;14.74;66.65
72802;BME280;61891;55.818;37.084;2023-07-13T04:49:41;98597.41;;;14.78;66.65
72802;BME280;61891;55.818;37.084;2023-07-13T04:52:07;98580.56;;;14.77;66.55
72802;BME280;61891;55.818;37.084;2023-07-13T04:54:34;98575.06;;;14.72;66.71
72802;BME280;61891;55.818;37.084;2023-07-13T04:57:00;98594.66;;;14.91;66.77
72802;BME280;61891;55.818;37.084;2023-07-13T04:59:26;98573.78;;;14.81;66.80
72802;BME280;61891;55.818;37.084;2023-07-13T05:01:53;98585.59;;;14.99;66.66
72802;BME280;61891;55.818;37.084;2023-07-13T05:04:18;98600.94;;;15.10;66.87
72802;BME280;61891;55.818;37.084;2023-07-13T05:06:44;98586.38;;;15.06;66.39
72802;BME280;61891;55.818;37.084;2023-07-13T05:09:10;98568.16;;;14.96;66.24
72802;BME280;61891;55.818;37.084;2023-07-13T05:11:36;98606.19;;;15.23;66.23
72802;BME280;61891;55.818;37.084;2023-07-13T05:14:01;98605.72;;;15.33;66.26
72802;BME280;61891;55.818;37.084;2023-07-13T05:16:27;98600.91;;;15.41;66.22
72802;BME280;61891;55.818;37.084;2023-07-13T05:18:53;98598.97;;;15.55;65.95
72802;BME280;61891;55.818;37.084;2023-07-13T05:21:19;98599.53;;;15.70;65.79
72802;BME280;61891;55.818;37.084;2023-07-13T05:23:47;98593.53;;;15.75;65.03
72802;BME280;61891;55.818;37.084;2023-07-13T05:26:13;98593.91;;;15.78;64.94
72802;BME280;61891;55.818;37.084;2023-07-13T05:28:38;98576.06;;;15.72;64.61
72802;BME280;61891;55.818;37.084;2023-07-13T05:31:06;98585.38;;;15.88;64.68
72802;BME280;61891;55.818;37.084;2023-07-13T05:33:32;98581.09;;;16.05;64.32
72802;BME280;61891;55.818;37.084;2023-07-13T05:35:58;98590.94;;;16.30;64.02
72802;BME280;61891;55.818;37.084;2023-07-13T05:38:26;98559.59;;;16.19;63.58
72802;BME280;61891;55.818;37.084;2023-07-13T05:40:54;98578.44;;;16.42;63.98
72802;BME280;61891;55.818;37.084;2023-07-13T05:43:20;98582.69;;;16.68;63.48
72802;BME280;61891;55.818;37.084;2023-07-13T05:45:46;98573.84;;;16.67;63.03
72802;BME280;61891;55.818;37.084;2023-07-13T05:48:12;98584.75;;;16.84;62.93
72802;BME280;61891;55.818;37.084;2023-07-13T05:50:38;98592.91;;;16.89;62.23
72802;BME280;61891;55.818;37.084;2023-07-13T05:53:04;98580.00;;;16.86;61.98
72802;BME280;61891;55.818;37.084;2023-07-13T05:55:30;98548.53;;;16.82;62.24
72802;BME280;61891;55.818;37.084;2023-07-13T05:57:56;98567.25;;;17.00;61.40
72802;BME280;61891;55.818;37.084;2023-07-13T06:00:24;98548.81;;;16.92;61.41
72802;BME280;61891;55.818;37.084;2023-07-13T06:02:50;98568.88;;;17.01;61.13
72802;BME280;61891;55.818;37.084;2023-07-13T06:05:16;98535.78;;;16.95;61.33
72802;BME280;61891;55.818;37.084;2023-07-13T06:07:42;98557.06;;;17.20;60.27
72802;BME280;61891;55.818;37.084;2023-07-13T06:10:08;98562.25;;;17.57;60.46
72802;BME280;61891;55.818;37.084;2023-07-13T06:12:34;98563.22;;;17.86;60.03
72802;BME280;61891;55.818;37.084;2023-07-13T06:15:00;98553.78;;;17.95;59.75
72802;BME280;61891;55.818;37.084;2023-07-13T06:17:25;98559.72;;;17.97;59.04
72802;BME280;61891;55.818;37.084;2023-07-13T06:19:51;98568.81;;;17.84;59.10
72802;BME280;61891;55.818;37.084;2023-07-13T06:22:17;98561.34;;;17.75;59.20
72802;BME280;61891;55.818;37.084;2023-07-13T06:24:43;98553.75;;;17.60;59.14
72802;BME280;61891;55.818;37.084;2023-07-13T06:27:08;98560.78;;;17.73;59.13
72802;BME280;61891;55.818;37.084;2023-07-13T06:29:34;98555.13;;;17.62;59.06
72802;BME280;61891;55.818;37.084;2023-07-13T06:32:01;98566.25;;;17.66;58.82
72802;BME280;61891;55.818;37.084;2023-07-13T06:34:26;98570.31;;;17.68;58.91
72802;BME280;61891;55.818;37.084;2023-07-13T06:36:52;98571.25;;;17.74;58.52
72802;BME280;61891;55.818;37.084;2023-07-13T06:39:18;98548.06;;;17.68;58.74
72802;BME280;61891;55.818;37.084;2023-07-13T06:41:44;98569.16;;;17.76;58.18
72802;BME280;61891;55.818;37.084;2023-07-13T06:44:13;98560.03;;;17.65;58.12
72802;BME280;61891;55.818;37.084;2023-07-13T06:46:39;98553.16;;;17.58;58.15
72802;BME280;61891;55.818;37.084;2023-07-13T06:49:04;98559.22;;;17.65;58.37
72802;BME280;61891;55.818;37.084;2023-07-13T06:51:30;98564.59;;;17.65;58.01
72802;BME280;61891;55.818;37.084;2023-07-13T06:53:56;98560.16;;;17.59;57.86
72802;BME280;61891;55.818;37.084;2023-07-13T06:56:21;98563.88;;;17.58;57.79
72802;BME280;61891;55.818;37.084;2023-07-13T06:58:47;98559.69;;;17.62;58.09
72802;BME280;61891;55.818;37.084;2023-07-13T07:01:13;98547.09;;;17.62;58.23
72802;BME280;61891;55.818;37.084;2023-07-13T07:03:39;98540.34;;;17.60;58.10
72802;BME280;61891;55.818;37.084;2023-07-13T07:06:17;98528.09;;;17.40;57.78
72802;BME280;61891;55.818;37.084;2023-07-13T07:08:43;98551.88;;;17.60;57.96
72802;BME280;61891;55.818;37.084;2023-07-13T07:11:19;98542.91;;;17.55;58.30
72802;BME280;61891;55.818;37.084;2023-07-13T07:13:45;98558.50;;;17.58;58.20
72802;BME280;61891;55.818;37.084;2023-07-13T07:16:11;98542.53;;;17.51;58.18
72802;BME280;61891;55.818;37.084;2023-07-13T07:18:36;98569.59;;;17.61;57.85
72802;BME280;61891;55.818;37.084;2023-07-13T07:21:03;98571.31;;;17.56;57.93
72802;BME280;61891;55.818;37.084;2023-07-13T07:23:28;98570.16;;;17.52;58.03
72802;BME280;61891;55.818;37.084;2023-07-13T07:25:54;98585.28;;;17.46;57.79
72802;BME280;61891;55.818;37.084;2023-07-13T07:28:20;98551.94;;;17.19;57.97
72802;BME280;61891;55.818;37.084;2023-07-13T07:30:46;98585.50;;;17.33;58.05
72802;BME280;61891;55.818;37.084;2023-07-13T07:33:13;98577.78;;;17.25;58.10
72802;BME280;61891;55.818;37.084;2023-07-13T07:35:39;98594.22;;;17.28;58.02
72802;BME280;61891;55.818;37.084;2023-07-13T07:38:05;98581.53;;;17.24;58.28
72802;BME280;61891;55.818;37.084;2023-07-13T07:40:31;98553.16;;;17.04;58.22
72802;BME280;61891;55.818;37.084;2023-07-13T07:42:57;98581.28;;;17.25;58.38
72802;BME280;61891;55.818;37.084;2023-07-13T07:45:23;98590.25;;;17.19;58.26
72802;BME280;61891;55.818;37.084;2023-07-13T07:47:49;98587.78;;;17.18;58.33
72802;BME280;61891;55.818;37.084;2023-07-13T07:50:15;98593.88;;;17.25;58.42
72802;BME280;61891;55.818;37.084;2023-07-13T07:52:41;98583.13;;;17.13;58.27
72802;BME280;61891;55.818;37.084;2023-07-13T07:55:07;98587.69;;;17.24;58.55
72802;BME280;61891;55.818;37.084;2023-07-13T07:57:33;98574.50;;;17.11;58.24
72802;BME280;61891;55.818;37.084;2023-07-13T07:59:59;98592.78;;;17.14;58.71
72802;BME280;61891;55.818;37.084;2023-07-13T08:02:25;98587.16;;;17.04;58.40
72802;BME280;61891;55.818;37.084;2023-07-13T08:04:51;98597.19;;;17.08;58.68
72802;BME280;61891;55.818;37.084;2023-07-13T08:07:18;98585.75;;;17.01;59.00
72802;BME280;61891;55.818;37.084;2023-07-13T08:09:43;98598.56;;;16.99;59.06
72802;BME280;61891;55.818;37.084;2023-07-13T08:12:10;98569.97;;;16.82;59.42
72802;BME280;61891;55.818;37.084;2023-07-13T08:14:35;98594.81;;;17.00;59.52
72802;BME280;61891;55.818;37.084;2023-07-13T08:17:01;98576.63;;;16.91;60.07
72802;BME280;61891;55.818;37.084;2023-07-13T08:19:27;98574.41;;;16.88;59.94
72802;BME280;61891;55.818;37.084;2023-07-13T08:21:53;98599.13;;;17.01;59.98
72802;BME280;61891;55.818;37.084;2023-07-13T08:24:22;98560.84;;;16.71;60.29
72802;BME280;61891;55.818;37.084;2023-07-13T08:26:47;98576.50;;;16.86;59.98
72802;BME280;61891;55.818;37.084;2023-07-13T08:29:13;98615.22;;;17.01;60.44
72802;BME280;61891;55.818;37.084;2023-07-13T08:31:39;98582.22;;;16.89;60.41
72802;BME280;61891;55.818;37.084;2023-07-13T08:34:05;98598.09;;;17.02;60.40
72802;BME280;61891;55.818;37.084;2023-07-13T08:36:30;98607.16;;;17.01;60.87
72802;BME280;61891;55.818;37.084;2023-07-13T08:38:56;98600.88;;;16.96;60.75
72802;BME280;61891;55.818;37.084;2023-07-13T08:41:23;98593.88;;;16.95;61.03
72802;BME280;61891;55.818;37.084;2023-07-13T08:43:51;98588.66;;;17.00;61.29
72802;BME280;61891;55.818;37.084;2023-07-13T08:46:32;98561.47;;;16.85;61.16
72802;BME280;61891;55.818;37.084;2023-07-13T08:49:14;98578.09;;;17.05;61.44
72802;BME280;61891;55.818;37.084;2023-07-13T08:51:48;98599.44;;;17.23;61.50
72802;BME280;61891;55.818;37.084;2023-07-13T08:56:45;98588.66;;;17.42;61.06
72802;BME280;61891;55.818;37.084;2023-07-13T08:59:18;98585.53;;;17.45;61.12
72802;BME280;61891;55.818;37.084;2023-07-13T09:04:23;98598.00;;;17.51;61.39
72802;BME280;61891;55.818;37.084;2023-07-13T09:12:35;98593.22;;;17.53;60.87
72802;BME280;61891;55.818;37.084;2023-07-13T09:15:02;98574.09;;;17.37;60.93
72802;BME280;61891;55.818;37.084;2023-07-13T09:17:46;98598.09;;;17.44;61.02
72802;BME280;61891;55.818;37.084;2023-07-13T09:20:31;98589.94;;;17.39;60.95
72802;BME280;61891;55.818;37.084;2023-07-13T09:23:04;98612.56;;;17.43;61.20
72802;BME280;61891;55.818;37.084;2023-07-13T09:25:35;98591.09;;;17.31;61.10
72802;BME280;61891;55.818;37.084;2023-07-13T09:30:46;98609.66;;;17.56;61.30
72802;BME280;61891;55.818;37.084;2023-07-13T09:33:14;98592.84;;;17.37;60.78
72802;BME280;61891;55.818;37.084;2023-07-13T09:35:40;98620.94;;;17.47;61.28
72802;BME280;61891;55.818;37.084;2023-07-13T09:38:16;98623.16;;;17.50;61.33
72802;BME280;61891;55.818;37.084;2023-07-13T09:43:15;98579.66;;;17.24;61.16
72802;BME280;61891;55.818;37.084;2023-07-13T09:45:45;98609.16;;;17.36;61.35
72802;BME280;61891;55.818;37.084;2023-07-13T09:48:13;98623.81;;;17.33;61.14
72802;BME280;61891;55.818;37.084;2023-07-13T09:50:40;98610.63;;;17.20;61.48
72802;BME280;61891;55.818;37.084;2023-07-13T09:53:17;98612.88;;;17.05;61.77
72802;BME280;61891;55.818;37.084;2023-07-13T09:55:46;98604.00;;;16.93;61.72
72802;BME280;61891;55.818;37.084;2023-07-13T09:58:20;98620.06;;;16.93;62.54
72802;BME280;61891;55.818;37.084;2023-07-13T10:01:03;98624.69;;;16.86;62.46
72802;BME280;61891;55.818;37.084;2023-07-13T10:03:34;98623.34;;;16.77;62.61
72802;BME280;61891;55.818;37.084;2023-07-13T10:06:17;98620.97;;;16.68;62.62
72802;BME280;61891;55.818;37.084;2023-07-13T10:08:45;98625.75;;;16.66;63.46
72802;BME280;61891;55.818;37.084;2023-07-13T10:11:21;98617.84;;;16.53;63.43
72802;BME280;61891;55.818;37.084;2023-07-13T10:13:58;98627.50;;;16.54;63.39
72802;BME280;61891;55.818;37.084;2023-07-13T10:16:27;98625.25;;;16.51;63.57
72802;BME280;61891;55.818;37.084;2023-07-13T10:19:02;98612.41;;;16.41;63.88
72802;BME280;61891;55.818;37.084;2023-07-13T10:21:35;98632.69;;;16.49;63.93
72802;BME280;61891;55.818;37.084;2023-07-13T10:24:27;98628.97;;;16.50;64.29
72802;BME280;61891;55.818;37.084;2023-07-13T10:27:00;98637.81;;;16.51;63.98
72802;BME280;61891;55.818;37.084;2023-07-13T10:29:29;98603.56;;;16.23;64.57
72802;BME280;61891;55.818;37.084;2023-07-13T10:31:56;98625.25;;;16.33;64.59
72802;BME280;61891;55.818;37.084;2023-07-13T10:34:23;98640.03;;;16.35;65.11
72802;BME280;61891;55.818;37.084;2023-07-13T10:36:49;98630.91;;;16.25;64.95
72802;BME280;61891;55.818;37.084;2023-07-13T10:39:26;98588.53;;;16.03;65.35
72802;BME280;61891;55.818;37.084;2023-07-13T10:42:03;98629.78;;;16.32;65.19
72802;BME280;61891;55.818;37.084;2023-07-13T10:44:32;98572.50;;;16.03;65.35
72802;BME280;61891;55.818;37.084;2023-07-13T10:47:01;98610.47;;;16.30;65.55
72802;BME280;61891;55.818;37.084;2023-07-13T10:49:30;98628.00;;;16.44;65.28
72802;BME280;61891;55.818;37.084;2023-07-13T10:51:57;98609.50;;;16.43;65.70
72802;BME280;61891;55.818;37.084;2023-07-13T10:57:21;98616.78;;;16.54;65.62
72802;BME280;61891;55.818;37.084;2023-07-13T11:00:19;98617.16;;;16.58;65.58
72802;BME280;61891;55.818;37.084;2023-07-13T11:02:56;98619.69;;;16.53;65.38
72802;BME280;61891;55.818;37.084;2023-07-13T11:05:29;98621.31;;;16.54;65.49
72802;BME280;61891;55.818;37.084;2023-07-13T11:08:19;98620.94;;;16.50;66.19
72802;BME280;61891;55.818;37.084;2023-07-13T11:10:52;98613.22;;;16.42;66.11
72802;BME280;61891;55.818;37.084;2023-07-13T11:21:28;98616.78;;;16.36;66.75
72802;BME280;61891;55.818;37.084;2023-07-13T11:26:41;98611.59;;;16.41;67.33
72802;BME280;61891;55.818;37.084;2023-07-13T11:31:58;98613.81;;;16.44;66.97
72802;BME280;61891;55.818;37.084;2023-07-13T11:34:31;98623.03;;;16.48;67.02
72802;BME280;61891;55.818;37.084;2023-07-13T11:37:00;98612.78;;;16.45;66.96
72802;BME280;61891;55.818;37.084;2023-07-13T11:39:37;98602.00;;;16.33;67.26
72802;BME280;61891;55.818;37.084;2023-07-13T11:42:07;98610.19;;;16.38;67.44
72802;BME280;61891;55.818;37.084;2023-07-13T11:44:42;98610.41;;;16.37;67.66
72802;BME280;61891;55.818;37.084;2023-07-13T11:47:11;98533.56;;;15.89;67.46
72802;BME280;61891;55.818;37.084;2023-07-13T11:49:45;98581.56;;;16.21;67.48
72802;BME280;61891;55.818;37.084;2023-07-13T11:52:19;98573.84;;;16.13;67.97
72802;BME280;61891;55.818;37.084;2023-07-13T11:54:51;98623.94;;;16.42;67.88
72802;BME280;61891;55.818;37.084;2023-07-13T11:57:28;98581.78;;;16.19;67.44
72802;BME280;61891;55.818;37.084;2023-07-13T11:59:55;98604.00;;;16.38;67.18
72802;BME280;61891;55.818;37.084;2023-07-13T12:02:45;98614.19;;;16.48;67.15
72802;BME280;61891;55.818;37.084;2023-07-13T12:05:16;98589.66;;;16.32;67.16
72802;BME280;61891;55.818;37.084;2023-07-13T12:07:49;98612.72;;;16.52;67.12
72802;BME280;61891;55.818;37.084;2023-07-13T12:13:01;98584.47;;;16.37;67.20
72802;BME280;61891;55.818;37.084;2023-07-13T12:15:41;98597.09;;;16.49;67.25
72802;BME280;61891;55.818;37.084;2023-07-13T12:18:29;98597.69;;;16.51;67.20
72802;BME280;61891;55.818;37.084;2023-07-13T12:20:57;98573.31;;;16.40;67.34
72802;BME280;61891;55.818;37.084;2023-07-13T12:23:28;98598.56;;;16.63;66.75
72802;BME280;61891;55.818;37.084;2023-07-13T12:25:55;98597.63;;;16.57;67.06
72802;BME280;61891;55.818;37.084;2023-07-13T12:28:28;98606.81;;;16.61;66.68
72802;BME280;61891;55.818;37.084;2023-07-13T12:31:19;98551.25;;;16.27;66.76
72802;BME280;61891;55.818;37.084;2023-07-13T12:33:56;98594.56;;;16.54;66.63
72802;BME280;61891;55.818;37.084;2023-07-13T12:36:22;98595.84;;;16.51;67.01
72802;BME280;61891;55.818;37.084;2023-07-13T12:38:48;98582.75;;;16.43;66.79
72802;BME280;61891;55.818;37.084;2023-07-13T12:41:15;98604.75;;;16.63;66.58
72802;BME280;61891;55.818;37.084;2023-07-13T12:43:41;98580.75;;;16.57;66.78
72802;BME280;61891;55.818;37.084;2023-07-13T12:46:19;98589.31;;;16.65;67.28
72802;BME280;61891;55.818;37.084;2023-07-13T12:48:53;98591.91;;;16.72;66.71
72802;BME280;61891;55.818;37.084;2023-07-13T12:51:25;98589.59;;;16.75;66.70
72802;BME280;61891;55.818;37.084;2023-07-13T12:53:57;98538.25;;;16.49;66.39
72802;BME280;61891;55.818;37.084;2023-07-13T12:56:27;98599.63;;;16.80;66.27
72802;BME280;61891;55.818;37.084;2023-07-13T12:59:00;98576.94;;;16.64;66.20
72802;BME280;61891;55.818;37.084;2023-07-13T13:01:28;98593.19;;;16.69;66.02
72802;BME280;61891;55.818;37.084;2023-07-13T13:03:55;98599.72;;;16.73;66.31
72802;BME280;61891;55.818;37.084;2023-07-13T13:06:24;98591.22;;;16.58;66.60
72802;BME280;61891;55.818;37.084;2023-07-13T13:09:00;98607.66;;;16.62;66.46
72802;BME280;61891;55.818;37.084;2023-07-13T13:11:29;98595.38;;;16.54;66.62
72802;BME280;61891;55.818;37.084;2023-07-13T13:13:55;98574.59;;;16.38;66.67
72802;BME280;61891;55.818;37.084;2023-07-13T13:16:32;98566.13;;;16.23;66.75
72802;BME280;61891;55.818;37.084;2023-07-13T13:19:01;98597.41;;;16.40;67.06
72802;BME280;61891;55.818;37.084;2023-07-13T13:21:34;98592.13;;;16.34;67.10
72802;BME280;61891;55.818;37.084;2023-07-13T13:23:59;98594.78;;;16.34;67.26
72802;BME280;61891;55.818;37.084;2023-07-13T13:26:25;98606.97;;;16.30;67.13
72802;BME280;61891;55.818;37.084;2023-07-13T13:28:51;98590.13;;;16.29;67.19
72802;BME280;61891;55.818;37.084;2023-07-13T13:31:17;98586.25;;;16.25;67.06
72802;BME280;61891;55.818;37.084;2023-07-13T13:33:44;98599.41;;;16.27;67.30
72802;BME280;61891;55.818;37.084;2023-07-13T13:36:22;98593.00;;;16.28;67.48
72802;BME280;61891;55.818;37.084;2023-07-13T13:38:49;98548.66;;;16.02;67.36
72802;BME280;61891;55.818;37.084;2023-07-13T13:41:16;98584.25;;;16.21;67.45
72802;BME280;61891;55.818;37.084;2023-07-13T13:43:43;98592.50;;;16.19;67.78
72802;BME280;61891;55.818;37.084;2023-07-13T13:46:16;98594.19;;;16.14;67.75
72802;BME280;61891;55.818;37.084;2023-07-13T13:48:43;98539.81;;;15.83;68.13
72802;BME280;61891;55.818;37.084;2023-07-13T13:51:16;98497.47;;;15.62;67.97
72802;BME280;61891;55.818;37.084;2023-07-13T13:53:43;98585.13;;;16.15;68.36
72802;BME280;61891;55.818;37.084;2023-07-13T13:56:09;98565.50;;;16.02;67.96
72802;BME280;61891;55.818;37.084;2023-07-13T13:58:35;98576.50;;;16.13;67.89